createdAt,value
2018-03-18T00:00:45.129Z,19.80
2018-03-18T00:03:12.578Z,22.00
2018-03-18T00:05:40.044Z,15.68
2018-03-18T00:08:07.513Z,18.60
2018-03-18T00:10:34.981Z,18.52
2018-03-18T00:13:02.419Z,14.43
2018-03-18T00:15:29.901Z,17.30
2018-03-18T00:17:58.128Z,18.15
2018-03-18T00:20:25.702Z,18.30
2018-03-18T00:22:53.168Z,18.20
2018-03-18T00:25:20.785Z,25.52
2018-03-18T00:27:48.265Z,18.30
2018-03-18T00:30:15.741Z,16.20
2018-03-18T00:32:43.319Z,18.05
2018-03-18T00:35:10.833Z,18.00
2018-03-18T00:37:38.353Z,17.77
2018-03-18T00:40:05.800Z,14.68
2018-03-18T00:42:33.766Z,16.87
2018-03-18T00:45:01.991Z,15.40
2018-03-18T00:47:29.447Z,17.52
2018-03-18T00:49:56.904Z,17.80
2018-03-18T00:52:24.364Z,17.27
2018-03-18T00:54:51.815Z,19.10
2018-03-18T00:57:19.281Z,22.52
2018-03-18T00:59:46.772Z,22.15
2018-03-18T01:02:14.225Z,19.50
2018-03-18T01:04:42.463Z,20.70
2018-03-18T01:07:09.945Z,15.85
2018-03-18T01:09:38.171Z,20.80
2018-03-18T01:12:05.628Z,17.00
2018-03-18T01:14:33.087Z,17.52
2018-03-18T01:17:00.539Z,19.80
2018-03-18T01:19:28.014Z,17.45
2018-03-18T01:21:55.472Z,13.80
2018-03-18T01:24:22.982Z,19.35
2018-03-18T01:26:51.405Z,19.00
2018-03-18T01:29:18.871Z,18.65
2018-03-18T01:31:46.336Z,18.12
2018-03-18T01:34:13.825Z,16.25
2018-03-18T01:36:42.047Z,19.05
2018-03-18T01:39:09.510Z,16.67
2018-03-18T01:41:37.020Z,16.85
2018-03-18T01:44:04.533Z,16.27
2018-03-18T01:46:32.019Z,19.40
2018-03-18T01:49:00.241Z,23.38
2018-03-18T01:51:27.684Z,19.08
2018-03-18T01:53:55.132Z,19.30
2018-03-18T01:56:22.607Z,18.48
2018-03-18T01:58:50.049Z,21.15
2018-03-18T02:01:17.555Z,20.92
2018-03-18T02:03:45.777Z,19.52
2018-03-18T02:06:13.219Z,21.20
2018-03-18T02:08:40.675Z,21.10
2018-03-18T02:11:08.135Z,16.87
2018-03-18T02:13:35.605Z,25.27
2018-03-18T02:16:03.039Z,21.77
2018-03-18T02:18:30.525Z,18.20
2018-03-18T02:20:57.964Z,21.52
2018-03-18T02:23:25.468Z,17.65
2018-03-18T02:25:56.396Z,20.67
2018-03-18T02:28:23.859Z,17.77
2018-03-18T02:30:51.304Z,19.02
2018-03-18T02:33:18.759Z,18.83
2018-03-18T02:35:46.214Z,18.90
2018-03-18T02:38:13.660Z,17.75
2018-03-18T02:40:41.104Z,17.55
2018-03-18T02:43:08.632Z,20.12
2018-03-18T02:45:36.089Z,23.20
2018-03-18T02:48:03.573Z,20.25
2018-03-18T02:50:31.077Z,21.40
2018-03-18T02:52:58.513Z,17.42
2018-03-18T02:55:25.970Z,18.23
2018-03-18T02:57:53.422Z,17.87
2018-03-18T03:00:21.124Z,17.00
2018-03-18T03:02:49.365Z,17.70
2018-03-18T03:05:16.820Z,22.05
2018-03-18T03:07:46.055Z,19.65
2018-03-18T03:10:13.614Z,17.73
2018-03-18T03:12:41.051Z,18.98
2018-03-18T03:15:09.296Z,20.25
2018-03-18T03:17:36.766Z,19.55
2018-03-18T03:20:04.231Z,20.35
2018-03-18T03:22:31.675Z,19.90
2018-03-18T03:24:59.136Z,19.62
2018-03-18T03:27:26.600Z,22.35
2018-03-18T03:29:54.072Z,21.00
2018-03-18T03:32:22.300Z,25.73
2018-03-18T03:34:49.764Z,20.80
2018-03-18T03:37:17.221Z,20.85
2018-03-18T03:39:44.692Z,23.30
2018-03-18T03:42:12.135Z,21.40
2018-03-18T03:44:39.605Z,19.65
2018-03-18T03:47:07.048Z,20.55
2018-03-18T03:49:34.537Z,23.08
2018-03-18T03:52:02.745Z,17.77
2018-03-18T03:54:30.179Z,18.05
2018-03-18T03:56:57.670Z,18.87
2018-03-18T03:59:25.116Z,21.05
2018-03-18T04:01:52.593Z,18.40
2018-03-18T04:04:20.159Z,17.05
2018-03-18T04:06:47.620Z,20.95
2018-03-18T04:09:15.074Z,20.98
2018-03-18T04:11:42.532Z,19.73
2018-03-18T04:14:10.002Z,18.42
2018-03-18T04:16:37.473Z,20.05
2018-03-18T04:19:05.706Z,18.02
2018-03-18T04:21:33.189Z,17.62
2018-03-18T04:24:00.629Z,23.27
2018-03-18T04:26:28.104Z,24.00
2018-03-18T04:28:55.559Z,20.12
2018-03-18T04:31:23.025Z,15.85
2018-03-18T04:33:51.244Z,19.52
2018-03-18T04:36:18.704Z,21.15
2018-03-18T04:38:46.154Z,22.50
2018-03-18T04:41:13.625Z,16.45
2018-03-18T04:43:41.093Z,16.73
2018-03-18T04:46:08.544Z,23.50
2018-03-18T04:48:36.043Z,18.00
2018-03-18T04:51:04.274Z,18.62
2018-03-18T04:53:31.715Z,24.02
2018-03-18T04:55:59.152Z,18.52
2018-03-18T04:58:26.659Z,16.73
2018-03-18T05:00:54.145Z,21.60
2018-03-18T05:03:22.351Z,16.20
2018-03-18T05:05:49.828Z,18.45
2018-03-18T05:08:17.306Z,19.17
2018-03-18T05:10:44.776Z,18.20
2018-03-18T05:13:12.953Z,22.73
2018-03-18T05:15:40.397Z,17.35
2018-03-18T05:18:07.876Z,23.25
2018-03-18T05:20:36.084Z,19.95
2018-03-18T05:23:03.578Z,15.43
2018-03-18T05:25:31.028Z,18.67
2018-03-18T05:27:58.486Z,18.65
2018-03-18T05:30:25.960Z,20.27
2018-03-18T05:32:53.412Z,26.48
2018-03-18T05:35:20.875Z,21.12
2018-03-18T05:37:49.080Z,19.35
2018-03-18T05:40:16.539Z,20.10
2018-03-18T05:42:43.995Z,17.83
2018-03-18T05:45:11.443Z,12.02
2018-03-18T05:47:38.896Z,22.15
2018-03-18T05:50:06.381Z,25.25
2018-03-18T05:52:33.838Z,17.62
2018-03-18T05:55:01.320Z,19.05
2018-03-18T05:57:28.751Z,21.52
2018-03-18T05:59:56.212Z,21.15
2018-03-18T06:02:23.765Z,20.12
2018-03-18T06:04:51.237Z,15.57
2018-03-18T06:07:18.696Z,19.20
2018-03-18T06:09:46.147Z,16.52
2018-03-18T06:12:13.618Z,18.67
2018-03-18T06:14:41.095Z,18.85
2018-03-18T06:17:09.323Z,18.45
2018-03-18T06:19:36.777Z,22.37
2018-03-18T06:22:04.233Z,19.77
2018-03-18T06:24:31.672Z,19.98
2018-03-18T06:26:59.155Z,16.83
2018-03-18T06:29:26.602Z,20.15
2018-03-18T06:31:54.068Z,16.48
2018-03-18T06:34:21.527Z,19.05
2018-03-18T06:36:49.001Z,16.12
2018-03-18T06:39:16.462Z,13.60
2018-03-18T06:41:44.023Z,19.35
2018-03-18T06:44:11.480Z,16.35
2018-03-18T06:46:38.944Z,16.75
2018-03-18T06:49:07.186Z,15.73
2018-03-18T06:51:34.668Z,16.23
2018-03-18T06:54:02.111Z,15.23
2018-03-18T06:56:29.632Z,15.93
2018-03-18T06:58:57.087Z,18.33
2018-03-18T07:01:24.524Z,15.30
2018-03-18T07:03:51.983Z,16.55
2018-03-18T07:06:20.339Z,14.63
2018-03-18T07:08:47.886Z,14.00
2018-03-18T07:11:15.329Z,13.13
2018-03-18T07:13:42.781Z,15.70
2018-03-18T07:16:10.228Z,16.92
2018-03-18T07:18:37.716Z,15.27
2018-03-18T07:21:05.928Z,13.77
2018-03-18T07:23:33.519Z,15.98
2018-03-18T07:26:00.964Z,21.02
2018-03-18T07:28:28.429Z,14.05
2018-03-18T07:30:55.952Z,16.98
2018-03-18T07:33:23.419Z,16.40
2018-03-18T07:35:50.886Z,16.58
2018-03-18T07:38:18.345Z,15.70
2018-03-18T07:40:45.818Z,14.02
2018-03-18T07:43:13.291Z,13.90
2018-03-18T07:45:40.747Z,14.68
2018-03-18T07:48:08.184Z,13.25
2018-03-18T07:50:35.697Z,16.58
2018-03-18T07:53:03.945Z,19.15
2018-03-18T07:55:32.163Z,12.37
2018-03-18T07:57:59.599Z,12.70
2018-03-18T08:00:27.097Z,14.82
2018-03-18T08:02:54.556Z,13.57
2018-03-18T08:05:22.084Z,23.77
2018-03-18T08:07:49.529Z,10.82
2018-03-18T08:10:16.995Z,12.68
2018-03-18T08:12:44.833Z,11.45
2018-03-18T08:15:12.329Z,11.57
2018-03-18T08:17:39.824Z,15.13
2018-03-18T08:20:08.352Z,14.80
2018-03-18T08:22:35.954Z,12.95
2018-03-18T08:25:03.940Z,17.55
2018-03-18T08:27:31.572Z,15.57
2018-03-18T08:29:59.106Z,15.02
2018-03-18T08:32:26.685Z,13.45
2018-03-18T08:34:58.858Z,17.60
2018-03-18T08:37:27.346Z,12.98
2018-03-18T08:39:58.962Z,15.23
2018-03-18T08:42:44.118Z,12.43
2018-03-18T08:45:11.821Z,13.80
2018-03-18T08:47:39.762Z,12.27
2018-03-18T08:50:07.268Z,17.42
2018-03-18T08:52:34.722Z,16.48
2018-03-18T08:55:02.191Z,16.58
2018-03-18T08:57:29.688Z,12.73
2018-03-18T08:59:57.172Z,17.15
2018-03-18T09:02:24.607Z,13.25
2018-03-18T09:04:52.083Z,12.68
2018-03-18T09:07:19.523Z,13.35
2018-03-18T09:09:46.973Z,16.25
2018-03-18T09:12:14.440Z,13.90
2018-03-18T09:14:41.920Z,16.12
2018-03-18T09:17:09.397Z,12.98
2018-03-18T09:19:37.630Z,16.73
2018-03-18T09:22:05.073Z,13.68
2018-03-18T09:24:42.949Z,13.65
2018-03-18T09:27:12.691Z,15.25
2018-03-18T09:29:40.133Z,13.95
2018-03-18T09:32:07.616Z,14.35
2018-03-18T09:34:52.513Z,10.10
2018-03-18T10:22:06.611Z,15.85
2018-03-18T10:24:34.075Z,14.68
2018-03-18T10:27:02.248Z,16.02
2018-03-18T10:29:29.702Z,14.95
2018-03-18T10:31:57.176Z,14.60
2018-03-18T10:34:25.489Z,13.77
2018-03-18T10:36:53.004Z,11.68
2018-03-18T10:39:20.486Z,13.25
2018-03-18T10:41:48.697Z,10.77
2018-03-18T10:44:16.237Z,11.70
2018-03-18T10:46:43.748Z,11.68
2018-03-18T10:49:11.205Z,12.75
2018-03-18T10:51:38.660Z,13.20
2018-03-18T10:54:06.093Z,15.52
2018-03-18T10:56:33.558Z,14.32
2018-03-18T10:59:01.019Z,11.90
2018-03-18T11:01:33.236Z,14.07
2018-03-18T11:04:06.417Z,13.55
2018-03-18T11:06:33.856Z,14.35
2018-03-18T11:09:02.140Z,16.12
2018-03-18T11:11:29.549Z,14.07
2018-03-18T11:13:57.668Z,12.85
2018-03-18T11:16:25.864Z,11.07
2018-03-18T11:18:53.325Z,15.05
2018-03-18T11:21:20.787Z,11.65
2018-03-18T11:23:48.301Z,11.48
2018-03-18T11:26:15.781Z,16.02
2018-03-18T11:28:43.231Z,14.27
2018-03-18T11:31:10.664Z,11.48
2018-03-18T11:33:38.914Z,13.70
2018-03-18T11:36:06.380Z,12.23
2018-03-18T11:38:33.888Z,15.63
2018-03-18T11:41:01.333Z,15.30
2018-03-18T11:43:28.761Z,15.15
2018-03-18T11:45:57.000Z,13.90
2018-03-18T11:48:24.428Z,13.48
2018-03-18T11:50:51.896Z,10.85
2018-03-18T11:53:19.368Z,14.10
2018-03-18T11:55:46.829Z,12.93
2018-03-18T11:58:14.355Z,12.80
2018-03-18T12:00:41.799Z,13.88
2018-03-18T12:03:09.248Z,15.27
2018-03-18T12:05:36.705Z,16.58
2018-03-18T12:08:04.265Z,11.05
2018-03-18T12:10:33.256Z,10.50
2018-03-18T12:13:00.789Z,13.40
2018-03-18T12:15:28.248Z,12.00
2018-03-18T12:17:55.685Z,12.88
2018-03-18T12:20:23.159Z,13.40
2018-03-18T12:22:51.378Z,9.63
2018-03-18T12:25:18.832Z,12.90
2018-03-18T12:27:46.349Z,11.73
2018-03-18T12:30:14.592Z,10.50
2018-03-18T12:32:42.073Z,10.05
2018-03-18T12:35:10.308Z,14.68
2018-03-18T12:37:37.759Z,11.68
2018-03-18T12:40:16.901Z,14.63
2018-03-18T12:42:56.020Z,13.23
2018-03-18T12:45:23.539Z,13.13
2018-03-18T12:47:51.767Z,14.30
2018-03-18T12:50:19.228Z,14.75
2018-03-18T12:52:46.734Z,10.93
2018-03-18T12:55:14.164Z,12.93
2018-03-18T12:57:42.393Z,11.35
2018-03-18T13:00:09.852Z,12.85
2018-03-18T13:02:37.303Z,9.88
2018-03-18T13:05:04.752Z,8.40
2018-03-18T13:07:32.204Z,12.25
2018-03-18T13:09:59.647Z,13.93
2018-03-18T13:12:27.146Z,13.00
2018-03-18T13:14:54.595Z,12.85
2018-03-18T13:17:22.056Z,11.77
2018-03-18T13:19:49.524Z,12.68
2018-03-18T13:22:16.954Z,15.40
2018-03-18T13:24:44.477Z,10.68
2018-03-18T13:27:11.913Z,15.07
2018-03-18T13:29:39.497Z,13.18
2018-03-18T13:32:06.949Z,12.35
2018-03-18T13:34:34.408Z,8.70
2018-03-18T13:37:03.422Z,12.18
2018-03-18T13:39:30.890Z,16.27
2018-03-18T13:41:58.337Z,10.95
2018-03-18T13:44:25.848Z,11.50
2018-03-18T13:46:53.295Z,13.45
2018-03-18T13:49:20.755Z,9.98
2018-03-18T13:51:48.223Z,10.27
2018-03-18T13:54:16.436Z,11.23
2018-03-18T13:56:43.896Z,12.05
2018-03-18T13:59:11.331Z,9.40
2018-03-18T14:01:38.790Z,11.88
2018-03-18T14:04:06.215Z,8.93
2018-03-18T14:06:34.454Z,12.57
2018-03-18T14:09:01.900Z,10.88
2018-03-18T14:11:29.391Z,10.18
2018-03-18T14:13:56.862Z,10.80
2018-03-18T14:16:25.153Z,9.07
2018-03-18T14:18:52.584Z,11.77
2018-03-18T14:21:20.023Z,10.18
2018-03-18T14:23:47.477Z,10.82
2018-03-18T14:26:14.940Z,11.48
2018-03-18T14:28:42.385Z,9.07
2018-03-18T14:31:09.852Z,13.07
2018-03-18T14:33:37.292Z,9.55
2018-03-18T14:36:04.731Z,12.55
2018-03-18T14:38:32.185Z,9.23
2018-03-18T14:40:59.650Z,8.60
2018-03-18T14:43:27.113Z,8.45
2018-03-18T14:45:54.569Z,9.85
2018-03-18T14:48:22.037Z,7.65
2018-03-18T14:50:49.486Z,10.07
2018-03-18T14:53:16.942Z,11.18
2018-03-18T14:55:44.393Z,17.10
2018-03-18T14:58:11.842Z,8.20
2018-03-18T15:00:39.293Z,8.07
2018-03-18T15:03:06.762Z,11.07
2018-03-18T15:05:34.275Z,8.98
2018-03-18T15:08:01.792Z,12.73
2018-03-18T15:10:29.278Z,10.15
2018-03-18T15:12:57.547Z,8.27
2018-03-18T15:15:25.769Z,6.47
2018-03-18T15:17:53.229Z,10.30
2018-03-18T15:20:20.693Z,10.55
2018-03-18T15:22:48.149Z,9.52
2018-03-18T15:25:15.680Z,8.90
2018-03-18T15:27:43.125Z,8.35
2018-03-18T15:30:10.579Z,7.85
2018-03-18T15:32:38.024Z,9.93
2018-03-18T15:35:05.507Z,8.55
2018-03-18T15:37:32.975Z,9.73
2018-03-18T15:40:01.040Z,8.32
2018-03-18T15:42:28.501Z,7.53
2018-03-18T15:44:55.953Z,8.48
2018-03-18T15:47:23.420Z,6.90
2018-03-18T15:49:50.847Z,7.70
2018-03-18T15:52:18.318Z,9.02
2018-03-18T15:54:45.821Z,9.15
2018-03-18T15:57:13.985Z,7.03
2018-03-18T15:59:41.455Z,7.90
2018-03-18T16:02:08.933Z,8.15
2018-03-18T16:04:37.142Z,7.80
2018-03-18T16:07:04.630Z,11.45
2018-03-18T16:09:32.100Z,11.48
2018-03-18T16:12:00.339Z,7.37
2018-03-18T16:14:27.912Z,6.70
2018-03-18T16:16:55.346Z,9.25
2018-03-18T16:19:22.844Z,11.50
2018-03-18T16:21:50.295Z,10.95
2018-03-18T16:24:17.786Z,8.40
2018-03-18T16:26:45.262Z,9.27
2018-03-18T16:29:24.458Z,10.18
2018-03-18T16:31:52.698Z,11.60
2018-03-18T16:34:20.151Z,11.60
2018-03-18T16:36:47.621Z,7.78
2018-03-18T16:39:15.072Z,10.13
2018-03-18T16:41:42.524Z,7.18
2018-03-18T16:44:10.011Z,10.57
2018-03-18T16:46:38.420Z,8.90
2018-03-18T16:49:05.900Z,12.65
2018-03-18T16:51:33.367Z,9.15
2018-03-18T16:54:00.839Z,8.23
2018-03-18T16:56:28.299Z,8.13
2018-03-18T16:58:56.543Z,11.15
2018-03-18T17:01:24.043Z,8.88
2018-03-18T17:03:51.946Z,8.80
2018-03-18T17:06:19.416Z,8.98
2018-03-18T17:08:46.972Z,11.40
2018-03-18T17:11:14.435Z,8.85
2018-03-18T17:13:41.938Z,9.80
2018-03-18T17:16:10.172Z,9.68
2018-03-18T17:18:39.333Z,8.98
2018-03-18T17:21:06.795Z,9.90
2018-03-18T17:23:34.274Z,8.05
2018-03-18T17:26:01.686Z,9.32
2018-03-18T17:28:29.902Z,6.87
2018-03-18T17:30:57.435Z,9.40
2018-03-18T17:33:24.864Z,7.65
2018-03-18T17:35:53.120Z,9.45
2018-03-18T17:38:20.601Z,12.48
2018-03-18T17:40:48.081Z,12.70
2018-03-18T17:43:15.550Z,7.40
2018-03-18T17:45:54.684Z,8.63
2018-03-18T17:48:33.888Z,9.32
2018-03-18T17:51:13.163Z,10.07
2018-03-18T17:53:52.355Z,7.18
2018-03-18T17:56:32.341Z,7.97
2018-03-18T17:58:59.898Z,9.60
2018-03-18T18:01:27.387Z,9.35
2018-03-18T18:03:54.855Z,7.75
2018-03-18T18:06:23.087Z,11.45
2018-03-18T18:08:50.550Z,5.20
2018-03-18T18:11:18.019Z,8.00
2018-03-18T18:13:45.497Z,8.68
2018-03-18T18:16:13.715Z,11.85
2018-03-18T18:18:42.036Z,10.05
2018-03-18T18:21:13.710Z,6.50
2018-03-18T18:23:41.169Z,8.57
2018-03-18T18:26:10.155Z,7.70
2018-03-18T18:28:38.387Z,6.80
2018-03-18T18:31:05.839Z,9.75
2018-03-18T18:33:33.300Z,14.27
2018-03-18T18:36:00.787Z,12.85
2018-03-18T18:38:28.248Z,9.20
2018-03-18T18:40:56.519Z,8.48
2018-03-18T18:43:24.045Z,7.53
2018-03-18T18:45:52.072Z,7.53
2018-03-18T18:48:19.546Z,10.20
2018-03-18T18:50:47.028Z,6.53
2018-03-18T18:53:14.515Z,8.65
2018-03-18T18:55:42.042Z,8.40
2018-03-18T18:58:09.536Z,11.57
2018-03-18T19:00:37.749Z,7.90
2018-03-18T19:03:05.308Z,8.48
2018-03-18T19:05:32.657Z,6.70
2018-03-18T19:08:00.330Z,6.53
2018-03-18T19:10:27.766Z,6.68
2018-03-18T19:12:55.296Z,8.48
2018-03-18T19:15:23.546Z,8.48
2018-03-18T19:30:41.035Z,9.15
2018-03-18T19:33:09.090Z,7.80
2018-03-18T19:35:36.609Z,10.73
2018-03-18T19:38:04.999Z,12.55
2018-03-18T19:40:32.813Z,7.78
2018-03-18T19:43:00.673Z,10.18
2018-03-18T19:45:28.137Z,8.23
2018-03-18T19:47:55.583Z,8.40
2018-03-18T19:50:23.044Z,7.45
2018-03-18T19:52:54.388Z,9.13
2018-03-18T19:55:21.882Z,6.87
2018-03-18T19:57:50.085Z,6.68
2018-03-18T20:00:17.555Z,12.30
2018-03-18T20:02:45.007Z,12.90
2018-03-18T20:05:12.474Z,8.50
2018-03-18T20:07:39.964Z,7.35
2018-03-18T20:10:07.430Z,8.10
2018-03-18T20:12:35.642Z,8.18
2018-03-18T20:15:03.855Z,11.90
2018-03-18T20:17:31.291Z,8.38
2018-03-18T20:19:58.757Z,7.72
2018-03-18T20:22:26.226Z,8.07
2018-03-18T20:24:53.686Z,7.45
2018-03-18T20:27:21.144Z,8.30
2018-03-18T20:29:49.413Z,5.35
2018-03-18T20:32:16.895Z,8.45
2018-03-18T20:34:44.523Z,5.75
2018-03-18T20:37:11.987Z,8.88
2018-03-18T20:39:39.466Z,6.18
2018-03-18T20:42:06.947Z,8.73
2018-03-18T20:44:34.526Z,11.07
2018-03-18T20:47:02.833Z,8.95
2018-03-18T20:49:30.274Z,7.22
2018-03-18T20:51:57.756Z,6.10
2018-03-18T20:54:25.257Z,9.27
2018-03-18T20:56:52.895Z,6.15
2018-03-18T20:59:21.119Z,10.38
2018-03-18T21:01:48.600Z,7.72
2018-03-18T21:04:16.113Z,8.07
2018-03-18T21:06:43.524Z,8.57
2018-03-18T21:09:11.037Z,9.57
2018-03-18T21:11:38.513Z,9.25
2018-03-18T21:14:06.025Z,14.98
2018-03-18T21:16:34.222Z,8.85
2018-03-18T21:19:01.696Z,8.15
2018-03-18T21:21:29.144Z,13.15
2018-03-18T21:23:56.620Z,9.35
2018-03-18T21:26:24.092Z,7.32
2018-03-18T21:28:52.340Z,8.35
2018-03-18T21:31:19.806Z,6.62
2018-03-18T21:33:47.272Z,7.53
2018-03-18T21:36:14.768Z,10.18
2018-03-18T21:38:42.355Z,5.62
2018-03-18T21:41:09.820Z,6.78
2018-03-18T21:43:37.296Z,6.85
2018-03-18T21:46:04.768Z,10.85
2018-03-18T21:48:32.372Z,9.00
2018-03-18T21:50:59.850Z,10.43
2018-03-18T21:53:27.309Z,10.27
2018-03-18T21:55:54.773Z,8.30
2018-03-18T21:58:22.274Z,8.95
2018-03-18T22:00:49.760Z,8.27
2018-03-18T22:03:17.266Z,11.88
2018-03-18T22:05:44.820Z,11.35
2018-03-18T22:08:12.304Z,8.73
2018-03-18T22:10:39.901Z,7.90
2018-03-18T22:13:08.166Z,9.93
2018-03-18T22:15:35.625Z,13.00
2018-03-18T22:18:03.080Z,9.40
2018-03-18T22:20:30.798Z,6.62
2018-03-18T22:22:58.233Z,10.57
2018-03-18T22:25:25.713Z,7.55
2018-03-18T22:27:53.952Z,8.60
2018-03-18T22:30:21.920Z,8.63
2018-03-18T22:32:49.415Z,10.25
2018-03-18T22:35:17.603Z,8.65
2018-03-18T22:37:45.076Z,10.57
2018-03-18T22:40:12.515Z,7.20
2018-03-18T22:42:39.987Z,9.60
2018-03-18T22:45:07.441Z,10.27
2018-03-18T22:47:34.904Z,10.93
2018-03-18T22:50:02.366Z,8.65
2018-03-18T22:52:30.143Z,9.23
2018-03-18T22:54:57.600Z,11.07
2018-03-18T22:57:25.051Z,6.50
2018-03-18T22:59:52.669Z,9.65
2018-03-18T23:02:21.723Z,10.75
2018-03-18T23:04:49.208Z,7.60
2018-03-18T23:07:16.661Z,8.68
2018-03-18T23:09:44.095Z,7.75
2018-03-18T23:12:11.596Z,8.93
2018-03-18T23:14:39.029Z,11.90
2018-03-18T23:17:07.287Z,10.35
2018-03-18T23:19:34.907Z,10.07
2018-03-18T23:22:02.363Z,10.50
2018-03-18T23:24:29.820Z,7.10
2018-03-18T23:26:57.272Z,10.15
2018-03-18T23:29:24.738Z,6.68
2018-03-18T23:31:52.208Z,9.48
2018-03-18T23:34:19.669Z,10.00
2018-03-18T23:36:47.218Z,9.93
2018-03-18T23:39:15.488Z,10.80
2018-03-18T23:41:42.966Z,8.77
2018-03-18T23:44:10.403Z,12.32
2018-03-18T23:46:37.973Z,11.32
2018-03-18T23:49:05.560Z,10.77
2018-03-18T23:51:33.014Z,8.90
2018-03-18T23:54:00.458Z,9.43
2018-03-18T23:56:27.983Z,8.10
2018-03-18T23:58:55.468Z,12.20
